Time;durP1;ratioP1;P1;durP2;ratioP2;P2;SDS_P1;SDS_P2;PMS_P1;PMS_P2;Temp;Humidity;BMP_temperature;BMP_pressure;BME280_temperature;BME280_humidity;BME280_pressure;Samples;Min_cycle;Max_cycle;Signal;HPM_P1;HPM_P2
2022/03/12 00:01:21;;;;;;;0.30;0.20;;;-1.80;57.50;;;;;;5056762;28;20249;-81
2022/03/12 00:03:48;;;;;;;0.30;0.10;;;-1.80;57.30;;;;;;5056399;28;20243;-82
2022/03/12 00:06:15;;;;;;;0.30;0.20;;;-1.90;57.40;;;;;;5056859;28;20209;-85
2022/03/12 00:08:44;;;;;;;0.30;0.10;;;-1.90;57.90;;;;;;5066179;28;20228;-82
2022/03/12 00:11:12;;;;;;;0.30;0.10;;;-1.90;57.60;;;;;;5054792;28;20202;-81
2022/03/12 00:13:41;;;;;;;0.30;0.10;;;-1.80;57.20;;;;;;5052546;28;20210;-81
2022/03/12 00:16:13;;;;;;;0.30;0.10;;;-1.70;56.90;;;;;;5056756;28;20269;-86
2022/03/12 00:18:42;;;;;;;0.40;0.30;;;-1.80;57.20;;;;;;5052206;28;20197;-81
2022/03/12 00:21:11;;;;;;;0.30;0.10;;;-1.80;56.90;;;;;;5055508;28;20233;-82
2022/03/12 00:23:38;;;;;;;0.30;0.20;;;-1.80;56.90;;;;;;5059038;28;20607;-82
2022/03/12 00:26:06;;;;;;;0.30;0.20;;;-1.80;56.90;;;;;;5053894;28;20272;-83
2022/03/12 00:28:33;;;;;;;0.50;0.47;;;-1.80;56.80;;;;;;5052991;28;20234;-82
2022/03/12 00:31:01;;;;;;;0.30;0.10;;;-1.70;56.70;;;;;;5053900;28;20256;-81
2022/03/12 00:33:28;;;;;;;0.30;0.10;;;-1.70;56.80;;;;;;5059417;28;20210;-81
2022/03/12 00:35:56;;;;;;;0.30;0.10;;;-1.80;56.90;;;;;;5063793;28;20293;-85
2022/03/12 00:38:23;;;;;;;0.30;0.10;;;-1.80;57.30;;;;;;5062889;28;20202;-81
2022/03/12 00:40:51;;;;;;;0.30;0.10;;;-1.90;57.10;;;;;;5065157;28;20238;-81
2022/03/12 00:43:18;;;;;;;0.30;0.10;;;-1.80;56.80;;;;;;5058163;28;20201;-81
2022/03/12 00:45:47;;;;;;;0.30;0.10;;;-1.70;56.70;;;;;;5063372;28;20225;-85
2022/03/12 00:48:16;;;;;;;0.30;0.10;;;-1.80;56.60;;;;;;5056025;28;20222;-81
2022/03/12 00:50:43;;;;;;;0.30;0.10;;;-1.80;56.60;;;;;;5055601;28;20292;-83
2022/03/12 00:53:10;;;;;;;0.30;0.10;;;-1.80;56.50;;;;;;5058237;28;20232;-83
2022/03/12 00:55:37;;;;;;;0.30;0.10;;;-1.80;56.50;;;;;;5064885;28;20225;-83
2022/03/12 00:58:04;;;;;;;0.30;0.10;;;-1.80;56.70;;;;;;5056831;28;20202;-81
2022/03/12 01:00:32;;;;;;;0.30;0.20;;;-1.80;56.80;;;;;;5057150;28;20225;-82
2022/03/12 01:02:59;;;;;;;0.30;0.10;;;-1.80;56.80;;;;;;5056961;28;20248;-81
2022/03/12 01:05:43;;;;;;;0.30;0.10;;;-1.90;56.80;;;;;;5071071;28;20636;-80
2022/03/12 01:08:10;;;;;;;0.30;0.10;;;-1.90;57.00;;;;;;5065719;28;20201;-80
2022/03/12 01:10:37;;;;;;;0.30;0.20;;;-2.00;57.10;;;;;;5060294;28;20202;-81
2022/03/12 01:13:04;;;;;;;0.30;0.10;;;-2.00;57.10;;;;;;5063407;28;20757;-81
2022/03/12 01:15:32;;;;;;;0.30;0.10;;;-2.00;57.20;;;;;;5066590;28;20198;-79
2022/03/12 01:17:59;;;;;;;0.30;0.10;;;-2.00;57.10;;;;;;5067435;28;20226;-82
2022/03/12 01:20:26;;;;;;;0.30;0.10;;;-2.00;57.30;;;;;;5073514;28;20226;-79
2022/03/12 01:22:55;;;;;;;0.38;0.32;;;-2.10;57.40;;;;;;5058755;28;20198;-83
2022/03/12 01:25:22;;;;;;;0.30;0.10;;;-2.10;57.60;;;;;;5058251;28;20194;-81
2022/03/12 01:27:49;;;;;;;0.30;0.10;;;-2.10;57.60;;;;;;5064390;28;20246;-80
2022/03/12 01:30:26;;;;;;;0.47;0.47;;;-2.00;57.40;;;;;;5061789;28;20198;-85
2022/03/12 01:32:53;;;;;;;0.30;0.10;;;-2.10;57.50;;;;;;5069177;28;20201;-83
2022/03/12 01:35:20;;;;;;;0.30;0.10;;;-2.10;57.90;;;;;;5067761;28;20198;-82
2022/03/12 01:37:47;;;;;;;0.30;0.10;;;-2.10;57.70;;;;;;5064756;28;20195;-81
2022/03/12 01:40:16;;;;;;;0.30;0.10;;;-2.10;57.90;;;;;;5063894;28;20230;-82
2022/03/12 01:42:43;;;;;;;0.30;0.20;;;-2.20;58.20;;;;;;5062498;28;20210;-82
2022/03/12 01:45:12;;;;;;;0.30;0.10;;;-2.30;58.50;;;;;;5061747;28;20209;-82
2022/03/12 01:47:40;;;;;;;0.30;0.10;;;-2.20;58.60;;;;;;5060084;28;20229;-81
2022/03/12 01:50:08;;;;;;;0.30;0.10;;;-2.20;58.80;;;;;;5053146;28;20206;-82
2022/03/12 01:52:35;;;;;;;0.30;0.10;;;-2.20;58.60;;;;;;5060103;28;20251;-82
2022/03/12 01:55:04;;;;;;;0.30;0.10;;;-2.20;58.20;;;;;;5054187;28;20276;-85
2022/03/12 01:57:32;;;;;;;0.60;0.52;;;-2.20;58.10;;;;;;5053212;28;20197;-82
2022/03/12 02:00:00;;;;;;;0.30;0.10;;;-2.20;58.00;;;;;;5057738;28;20249;-85
2022/03/12 02:02:29;;;;;;;0.30;0.10;;;-2.20;58.20;;;;;;5056317;28;20289;-82
2022/03/12 02:04:56;;;;;;;0.30;0.10;;;-2.20;58.10;;;;;;5055844;28;20213;-82
2022/03/12 02:07:23;;;;;;;0.60;0.52;;;-2.20;58.60;;;;;;5055509;28;20206;-82
2022/03/12 02:09:51;;;;;;;0.30;0.10;;;-2.20;58.50;;;;;;5054350;28;20653;-82
2022/03/12 02:12:18;;;;;;;0.30;0.20;;;-2.20;58.30;;;;;;5051260;28;20210;-82
2022/03/12 02:14:46;;;;;;;1.10;1.00;;;-2.20;58.40;;;;;;5060393;28;20304;-84
2022/03/12 02:17:14;;;;;;;0.30;0.10;;;-2.10;58.00;;;;;;5056997;28;20238;-81
2022/03/12 02:19:42;;;;;;;0.30;0.10;;;-2.20;58.20;;;;;;5050779;28;20247;-83
2022/03/12 02:22:11;;;;;;;0.30;0.10;;;-2.10;58.10;;;;;;5054847;28;20205;-82
2022/03/12 02:24:39;;;;;;;0.30;0.10;;;-2.20;58.20;;;;;;5054437;28;20202;-83
2022/03/12 02:27:10;;;;;;;0.30;0.10;;;-2.30;58.60;;;;;;5057699;28;20263;-82
2022/03/12 02:29:40;;;;;;;0.30;0.10;;;-2.20;58.20;;;;;;5056126;28;20197;-81
2022/03/12 02:32:10;;;;;;;0.30;0.10;;;-2.20;58.40;;;;;;5053001;28;20297;-83
2022/03/12 02:34:42;;;;;;;0.30;0.20;;;-2.20;58.30;;;;;;5051064;28;20696;-83
2022/03/12 02:37:10;;;;;;;0.30;0.10;;;-2.30;58.50;;;;;;5057068;28;20576;-88
2022/03/12 02:39:41;;;;;;;0.30;0.10;;;-2.20;58.50;;;;;;5050812;28;20206;-82
2022/03/12 02:42:09;;;;;;;2.67;1.95;;;-2.20;58.10;;;;;;5052892;28;20267;-84
2022/03/12 02:44:36;;;;;;;0.30;0.10;;;-2.20;58.10;;;;;;5056083;28;20224;-83
2022/03/12 02:47:14;;;;;;;0.30;0.10;;;-2.20;58.30;;;;;;5055133;28;20613;-82
2022/03/12 02:49:45;;;;;;;0.30;0.10;;;-2.30;58.50;;;;;;5056293;28;20210;-85
2022/03/12 02:52:13;;;;;;;0.30;0.15;;;-2.30;58.80;;;;;;5058314;28;20206;-87
2022/03/12 02:54:42;;;;;;;0.30;0.10;;;-2.30;59.00;;;;;;5055246;28;20221;-82
2022/03/12 02:57:09;;;;;;;0.30;0.10;;;-2.40;59.70;;;;;;5055972;28;20200;-82
2022/03/12 02:59:36;;;;;;;0.30;0.10;;;-2.40;59.00;;;;;;5062343;28;20584;-83
2022/03/12 03:02:07;;;;;;;0.30;0.10;;;-2.50;59.40;;;;;;5066778;28;20309;-82
2022/03/12 03:04:35;;;;;;;0.30;0.10;;;-2.40;59.40;;;;;;5079821;28;20593;-81
2022/03/12 03:07:03;;;;;;;0.30;0.20;;;-2.50;59.40;;;;;;5065082;28;20231;-82
2022/03/12 03:09:30;;;;;;;0.30;0.10;;;-2.50;59.50;;;;;;5063773;28;20256;-82
2022/03/12 03:12:02;;;;;;;0.30;0.10;;;-2.50;59.80;;;;;;5058318;28;20256;-83
2022/03/12 03:14:29;;;;;;;0.30;0.10;;;-2.50;60.10;;;;;;5056827;28;20216;-85
2022/03/12 03:16:59;;;;;;;0.30;0.20;;;-2.60;60.40;;;;;;5056752;28;20226;-86
2022/03/12 03:19:26;;;;;;;0.30;0.10;;;-2.60;60.20;;;;;;5061695;28;20201;-83
2022/03/12 03:21:54;;;;;;;0.30;0.10;;;-2.60;60.30;;;;;;5055398;28;20308;-82
2022/03/12 03:24:22;;;;;;;0.30;0.10;;;-2.60;60.20;;;;;;5057055;28;20240;-81
2022/03/12 03:26:58;;;;;;;0.30;0.10;;;-2.60;60.40;;;;;;5053713;28;20202;-81
2022/03/12 03:29:28;;;;;;;0.30;0.10;;;-2.60;60.80;;;;;;5054064;28;20206;-89
2022/03/12 03:31:55;;;;;;;0.30;0.10;;;-2.60;60.80;;;;;;5059282;28;20214;-84
2022/03/12 03:34:23;;;;;;;0.30;0.20;;;-2.60;60.90;;;;;;5064280;28;20268;-82
2022/03/12 03:36:50;;;;;;;0.30;0.10;;;-2.60;61.00;;;;;;5061181;28;20210;-82
2022/03/12 03:39:18;;;;;;;0.57;0.55;;;-2.70;61.00;;;;;;5055685;28;20250;-85
2022/03/12 03:41:45;;;;;;;1.25;0.60;;;-2.60;60.70;;;;;;5054414;28;20283;-84
2022/03/12 03:44:14;;;;;;;0.30;0.20;;;-2.60;60.50;;;;;;5054224;28;20668;-84
2022/03/12 03:46:42;;;;;;;0.30;0.17;;;-2.60;60.80;;;;;;5052199;28;20201;-86
2022/03/12 03:49:09;;;;;;;0.30;0.10;;;-2.60;60.80;;;;;;5049637;28;20267;-82
2022/03/12 03:51:41;;;;;;;0.30;0.10;;;-2.60;60.80;;;;;;5053623;28;20206;-84
2022/03/12 03:54:09;;;;;;;0.30;0.10;;;-2.60;60.40;;;;;;5051316;28;20285;-84
2022/03/12 03:56:37;;;;;;;0.30;0.10;;;-2.50;60.20;;;;;;5061732;28;20229;-81
2022/03/12 03:59:04;;;;;;;0.30;0.10;;;-2.60;60.30;;;;;;5074590;28;20206;-81
2022/03/12 04:01:34;;;;;;;0.30;0.10;;;-2.60;60.20;;;;;;5070604;28;20276;-79
2022/03/12 04:04:01;;;;;;;0.30;0.10;;;-2.50;60.00;;;;;;5071114;28;20270;-81
2022/03/12 04:06:28;;;;;;;0.30;0.20;;;-2.40;59.70;;;;;;5074072;28;20252;-87
2022/03/12 04:08:55;;;;;;;0.40;0.30;;;-2.50;59.50;;;;;;5060822;28;20210;-81
2022/03/12 04:11:24;;;;;;;0.30;0.10;;;-2.40;59.30;;;;;;5053556;28;20205;-82
2022/03/12 04:13:53;;;;;;;0.30;0.20;;;-2.40;59.30;;;;;;5058141;28;20255;-85
2022/03/12 04:16:21;;;;;;;0.30;0.10;;;-2.50;59.10;;;;;;5052583;28;20255;-83
2022/03/12 04:18:50;;;;;;;0.30;0.10;;;-2.50;59.20;;;;;;5055487;28;20810;-82
2022/03/12 04:21:19;;;;;;;0.30;0.10;;;-2.50;59.20;;;;;;5068622;28;20248;-85
2022/03/12 04:23:47;;;;;;;0.30;0.10;;;-2.50;59.00;;;;;;5058984;28;20214;-83
2022/03/12 04:26:15;;;;;;;0.30;0.10;;;-2.50;59.00;;;;;;5061495;28;20625;-82
2022/03/12 04:28:43;;;;;;;0.30;0.20;;;-2.50;59.00;;;;;;5073108;28;20291;-86
2022/03/12 04:31:11;;;;;;;0.30;0.10;;;-2.50;58.80;;;;;;5054331;28;20202;-82
2022/03/12 04:33:40;;;;;;;0.30;0.10;;;-2.50;58.70;;;;;;5059891;28;20198;-82
2022/03/12 04:36:10;;;;;;;0.30;0.10;;;-2.50;58.40;;;;;;5053028;28;20210;-82
2022/03/12 04:38:37;;;;;;;0.30;0.10;;;-2.40;58.10;;;;;;5061911;28;20563;-82
2022/03/12 04:41:04;;;;;;;0.30;0.20;;;-2.50;58.20;;;;;;5058580;28;20726;-85
2022/03/12 04:43:32;;;;;;;0.30;0.10;;;-2.50;58.10;;;;;;5060826;28;20271;-83
2022/03/12 04:46:02;;;;;;;0.30;0.10;;;-2.50;58.10;;;;;;5052976;28;20204;-84
2022/03/12 04:48:30;;;;;;;0.30;0.10;;;-2.50;57.90;;;;;;5056752;28;20205;-83
2022/03/12 04:50:57;;;;;;;0.30;0.10;;;-2.50;58.00;;;;;;5054143;28;20198;-83
2022/03/12 04:53:26;;;;;;;0.40;0.20;;;-2.50;57.90;;;;;;5058005;28;20198;-82
2022/03/12 04:55:53;;;;;;;0.30;0.10;;;-2.50;57.70;;;;;;5054950;28;20195;-83
2022/03/12 04:58:21;;;;;;;0.30;0.10;;;-2.50;57.30;;;;;;5051890;28;20198;-83
2022/03/12 05:00:48;;;;;;;0.30;0.10;;;-2.40;56.60;;;;;;5068159;28;20206;-82
2022/03/12 05:03:18;;;;;;;0.30;0.10;;;-2.40;56.30;;;;;;5064841;28;20214;-82
2022/03/12 05:05:46;;;;;;;0.30;0.10;;;-2.40;56.30;;;;;;5069179;28;20205;-87
2022/03/12 05:08:16;;;;;;;0.30;0.10;;;-2.50;56.70;;;;;;5060518;28;20200;-83
2022/03/12 05:10:49;;;;;;;0.30;0.20;;;-2.50;56.40;;;;;;5057806;28;20202;-83
2022/03/12 05:13:22;;;;;;;0.30;0.20;;;-2.50;56.10;;;;;;5056219;28;20700;-83
2022/03/12 05:15:51;;;;;;;0.30;0.10;;;-2.40;55.80;;;;;;5054336;28;20230;-82
2022/03/12 05:18:19;;;;;;;0.30;0.10;;;-2.40;55.60;;;;;;5057810;28;20240;-83
2022/03/12 05:20:47;;;;;;;0.30;0.10;;;-2.40;55.70;;;;;;5064691;28;20210;-82
2022/03/12 05:23:16;;;;;;;0.30;0.10;;;-2.50;55.30;;;;;;5070757;28;20215;-81
2022/03/12 05:25:45;;;;;;;0.30;0.10;;;-2.50;55.10;;;;;;5059037;28;20256;-84
2022/03/12 05:28:13;;;;;;;0.30;0.20;;;-2.40;54.60;;;;;;5061481;28;20248;-82
2022/03/12 05:30:40;;;;;;;0.30;0.20;;;-2.40;54.30;;;;;;5062424;28;20201;-82
2022/03/12 05:33:08;;;;;;;0.30;0.10;;;-2.40;54.40;;;;;;5056234;28;20267;-85
2022/03/12 05:35:42;;;;;;;0.30;0.10;;;-2.40;54.20;;;;;;5055888;28;20265;-84
2022/03/12 05:38:11;;;;;;;0.30;0.10;;;-2.30;53.80;;;;;;5058763;28;20576;-83
2022/03/12 05:40:39;;;;;;;0.30;0.10;;;-2.30;53.70;;;;;;5063222;28;20365;-83
2022/03/12 05:43:12;;;;;;;0.30;0.10;;;-2.30;53.40;;;;;;5061292;28;20226;-83
2022/03/12 05:45:40;;;;;;;0.30;0.10;;;-2.30;53.30;;;;;;5059692;28;20198;-81
2022/03/12 05:48:09;;;;;;;0.30;0.10;;;-2.30;53.10;;;;;;5060666;28;20259;-84
2022/03/12 05:50:36;;;;;;;0.30;0.20;;;-2.20;52.50;;;;;;5059560;28;20202;-82
2022/03/12 05:53:05;;;;;;;0.30;0.10;;;-2.20;52.60;;;;;;5063270;28;20723;-81
2022/03/12 05:55:38;;;;;;;0.30;0.10;;;-2.10;52.30;;;;;;5051841;28;20786;-82
2022/03/12 05:58:07;;;;;;;0.30;0.10;;;-2.10;52.10;;;;;;5052654;28;20226;-83
2022/03/12 06:00:34;;;;;;;0.30;0.10;;;-2.00;51.90;;;;;;5067652;28;20882;-85
2022/03/12 06:03:02;;;;;;;0.30;0.20;;;-2.00;51.50;;;;;;5052122;28;20810;-86
2022/03/12 06:05:31;;;;;;;0.30;0.10;;;-1.90;51.20;;;;;;5055888;28;20206;-83
2022/03/12 06:07:59;;;;;;;0.30;0.20;;;-2.00;51.30;;;;;;5051152;28;20207;-83
2022/03/12 06:10:31;;;;;;;0.30;0.10;;;-2.00;51.50;;;;;;5055610;28;20559;-83
2022/03/12 06:12:59;;;;;;;0.43;0.43;;;-1.90;51.60;;;;;;5061884;28;20209;-83
2022/03/12 06:15:28;;;;;;;0.30;0.10;;;-1.90;51.20;;;;;;5061968;28;20202;-87
2022/03/12 06:17:55;;;;;;;0.30;0.10;;;-1.80;51.00;;;;;;5050169;28;20226;-83
2022/03/12 06:20:24;;;;;;;0.30;0.10;;;-1.80;50.80;;;;;;5067239;28;20193;-83
2022/03/12 06:22:53;;;;;;;0.30;0.10;;;-1.70;50.80;;;;;;5070221;28;20294;-85
2022/03/12 06:25:22;;;;;;;0.30;0.10;;;-1.70;50.50;;;;;;5071051;28;20205;-82
2022/03/12 06:27:54;;;;;;;0.30;0.20;;;-1.60;50.20;;;;;;5051232;28;20206;-84
2022/03/12 06:30:22;;;;;;;0.30;0.10;;;-1.60;50.00;;;;;;5051247;28;20206;-86
2022/03/12 06:32:51;;;;;;;0.30;0.20;;;-1.50;49.70;;;;;;5058115;28;20655;-88
2022/03/12 06:35:19;;;;;;;0.30;0.10;;;-1.40;49.60;;;;;;5067785;28;20272;-83
2022/03/12 06:37:46;;;;;;;0.30;0.10;;;-1.40;49.40;;;;;;5065626;28;21611;-88
2022/03/12 06:40:14;;;;;;;0.30;0.10;;;-1.40;49.60;;;;;;5065283;28;20199;-82
2022/03/12 06:42:43;;;;;;;0.30;0.10;;;-1.30;49.90;;;;;;5070539;28;20785;-86
2022/03/12 06:45:10;;;;;;;0.30;0.10;;;-1.20;49.80;;;;;;5083973;28;21799;-80
2022/03/12 06:47:38;;;;;;;0.30;0.10;;;-1.10;49.70;;;;;;5084876;28;20396;-81
2022/03/12 06:50:10;;;;;;;0.88;0.88;;;-1.10;49.30;;;;;;5063254;28;20255;-84
2022/03/12 06:52:40;;;;;;;1.58;0.88;;;-1.00;49.00;;;;;;5060275;28;20244;-82
2022/03/12 06:55:09;;;;;;;0.30;0.10;;;-1.00;49.00;;;;;;5052781;28;20260;-82
2022/03/12 06:57:36;;;;;;;0.30;0.10;;;-1.00;48.60;;;;;;5067236;28;20198;-80
2022/03/12 07:00:05;;;;;;;0.30;0.10;;;-0.90;48.80;;;;;;5059788;28;20264;-82
2022/03/12 07:02:32;;;;;;;0.30;0.10;;;-0.80;48.70;;;;;;5055909;28;20284;-82
2022/03/12 07:04:59;;;;;;;0.30;0.10;;;-0.70;48.60;;;;;;5052446;28;20205;-84
2022/03/12 07:07:28;;;;;;;0.30;0.10;;;-0.60;48.50;;;;;;5065455;28;20194;-82
2022/03/12 07:09:54;;;;;;;0.30;0.10;;;-0.60;48.30;;;;;;5069661;28;20202;-82
2022/03/12 07:12:21;;;;;;;0.30;0.10;;;-0.60;48.30;;;;;;5065552;28;20253;-82
2022/03/12 07:14:49;;;;;;;0.40;0.30;;;-0.40;48.70;;;;;;5065194;28;20538;-83
2022/03/12 07:17:16;;;;;;;0.30;0.10;;;-0.30;48.30;;;;;;5061700;28;20246;-82
2022/03/12 07:19:43;;;;;;;0.45;0.45;;;-0.30;48.30;;;;;;5055458;28;20201;-83
2022/03/12 07:22:09;;;;;;;0.30;0.10;;;-0.20;48.00;;;;;;5060860;28;20223;-82
2022/03/12 07:24:38;;;;;;;0.30;0.10;;;-0.10;48.20;;;;;;5050131;28;20199;-82
2022/03/12 07:27:05;;;;;;;0.30;0.10;;;-0.10;47.80;;;;;;5068801;28;20383;-82
2022/03/12 07:29:32;;;;;;;0.40;0.30;;;0.10;48.20;;;;;;5049673;28;20256;-84
2022/03/12 07:31:59;;;;;;;0.30;0.10;;;0.10;47.40;;;;;;5049886;28;20210;-81
2022/03/12 07:34:27;;;;;;;0.30;0.20;;;0.20;47.70;;;;;;5057171;28;20202;-86
2022/03/12 07:36:54;;;;;;;0.30;0.10;;;0.30;47.30;;;;;;5067232;28;20654;-82
2022/03/12 07:39:21;;;;;;;0.30;0.10;;;0.30;47.30;;;;;;5063209;28;21016;-83
2022/03/12 07:41:50;;;;;;;0.30;0.10;;;0.50;47.80;;;;;;5068413;28;20752;-82
2022/03/12 07:44:17;;;;;;;0.30;0.15;;;0.60;47.40;;;;;;5069857;28;20290;-82
2022/03/12 07:46:45;;;;;;;0.30;0.10;;;0.70;47.00;;;;;;5053428;28;20712;-86
2022/03/12 07:49:13;;;;;;;0.70;0.20;;;0.80;47.10;;;;;;5063809;28;20204;-81
2022/03/12 07:51:43;;;;;;;0.30;0.10;;;1.10;47.00;;;;;;5073225;28;20206;-82
2022/03/12 07:54:10;;;;;;;0.30;0.10;;;1.00;46.40;;;;;;5063742;28;20240;-82
2022/03/12 07:56:38;;;;;;;0.30;0.20;;;1.00;46.50;;;;;;5069040;28;20193;-82
2022/03/12 07:59:07;;;;;;;0.30;0.10;;;1.00;46.30;;;;;;5071002;28;20205;-82
2022/03/12 08:01:34;;;;;;;0.30;0.10;;;1.10;45.80;;;;;;5076278;28;20755;-82
2022/03/12 08:04:02;;;;;;;0.30;0.10;;;1.20;45.60;;;;;;5056391;28;20676;-81
2022/03/12 08:06:29;;;;;;;0.30;0.20;;;1.20;45.90;;;;;;5058710;28;20205;-83
2022/03/12 08:08:56;;;;;;;0.30;0.10;;;1.30;45.60;;;;;;5061056;28;20350;-84
2022/03/12 08:11:28;;;;;;;0.30;0.10;;;1.30;45.30;;;;;;5061389;28;20203;-81
2022/03/12 08:13:57;;;;;;;0.30;0.10;;;1.40;45.80;;;;;;5059213;28;20687;-80
2022/03/12 08:16:28;;;;;;;0.40;0.30;;;1.60;45.50;;;;;;5057789;28;20206;-81
2022/03/12 08:18:55;;;;;;;0.30;0.10;;;1.70;45.30;;;;;;5063637;28;20664;-82
2022/03/12 08:21:22;;;;;;;0.30;0.15;;;1.80;45.00;;;;;;5070809;28;20660;-80
2022/03/12 08:23:50;;;;;;;0.30;0.20;;;2.00;44.80;;;;;;5071761;28;20286;-82
2022/03/12 08:26:18;;;;;;;0.30;0.10;;;2.00;44.70;;;;;;5058919;28;20196;-81
2022/03/12 08:28:45;;;;;;;0.30;0.10;;;1.90;45.10;;;;;;5055611;28;20208;-84
2022/03/12 08:31:12;;;;;;;0.30;0.10;;;2.10;44.70;;;;;;5055629;28;20491;-80
2022/03/12 08:33:41;;;;;;;0.30;0.10;;;2.30;45.10;;;;;;5069253;28;20894;-84
2022/03/12 08:36:08;;;;;;;0.30;0.20;;;2.30;45.00;;;;;;5054845;28;20459;-82
2022/03/12 08:38:36;;;;;;;0.30;0.10;;;2.60;45.60;;;;;;5055553;28;20235;-86
2022/03/12 08:41:05;;;;;;;0.30;0.20;;;2.60;44.80;;;;;;5067483;28;20201;-84
2022/03/12 08:43:33;;;;;;;0.30;0.10;;;2.70;44.60;;;;;;5073289;28;20488;-83
2022/03/12 08:46:01;;;;;;;0.30;0.20;;;2.80;44.20;;;;;;5073112;28;21065;-86
2022/03/12 08:48:28;;;;;;;0.30;0.10;;;3.00;45.00;;;;;;5068526;28;20457;-85
2022/03/12 08:50:57;;;;;;;0.30;0.10;;;2.90;43.90;;;;;;5053377;28;20457;-85
2022/03/12 08:53:24;;;;;;;0.40;0.20;;;3.00;44.00;;;;;;5066247;28;20487;-83
2022/03/12 08:55:51;;;;;;;0.30;0.10;;;3.20;43.90;;;;;;5059932;28;20920;-84
2022/03/12 08:58:21;;;;;;;0.30;0.10;;;3.40;44.50;;;;;;5055410;28;20459;-83
2022/03/12 09:00:52;;;;;;;0.30;0.10;;;3.50;44.10;;;;;;5061239;28;20944;-86
2022/03/12 09:03:20;;;;;;;1.37;0.57;;;3.70;44.10;;;;;;5057471;28;20526;-84
2022/03/12 09:05:48;;;;;;;0.30;0.10;;;3.70;43.80;;;;;;5057719;28;20624;-86
2022/03/12 09:08:17;;;;;;;0.30;0.20;;;3.70;43.40;;;;;;5069033;28;20447;-84
2022/03/12 09:10:44;;;;;;;0.30;0.10;;;3.90;42.70;;;;;;5064979;28;20461;-84
2022/03/12 09:13:12;;;;;;;0.30;0.10;;;3.70;42.40;;;;;;5058558;28;20458;-86
2022/03/12 09:15:40;;;;;;;0.30;0.20;;;3.90;42.90;;;;;;5072617;28;20510;-84
2022/03/12 09:18:08;;;;;;;0.30;0.20;;;4.10;43.70;;;;;;5061747;28;20820;-85
2022/03/12 09:20:38;;;;;;;0.30;0.13;;;4.40;43.90;;;;;;5053924;28;20519;-85
2022/03/12 09:23:05;;;;;;;0.30;0.20;;;4.40;43.20;;;;;;5076821;28;20631;-86
2022/03/12 09:25:33;;;;;;;0.30;0.20;;;4.50;43.20;;;;;;5079366;28;20496;-86
2022/03/12 09:28:00;;;;;;;0.30;0.10;;;4.30;42.40;;;;;;5068311;28;20487;-86
2022/03/12 09:30:27;;;;;;;0.40;0.20;;;4.60;44.40;;;;;;5065935;28;20445;-85
2022/03/12 09:32:54;;;;;;;0.30;0.20;;;4.80;43.10;;;;;;5061540;28;20456;-84
2022/03/12 09:35:22;;;;;;;0.30;0.10;;;4.90;43.30;;;;;;5061628;28;20468;-85
2022/03/12 09:37:49;;;;;;;0.40;0.30;;;4.90;42.30;;;;;;5056651;28;20468;-85
2022/03/12 09:40:16;;;;;;;0.30;0.20;;;4.90;42.00;;;;;;5068410;28;20519;-85
2022/03/12 09:42:45;;;;;;;0.30;0.20;;;4.90;42.70;;;;;;5073826;28;20997;-85
2022/03/12 09:45:13;;;;;;;0.40;0.30;;;5.10;42.70;;;;;;5060847;28;21020;-85
2022/03/12 09:47:40;;;;;;;0.30;0.20;;;5.40;42.50;;;;;;5067382;28;20892;-84
2022/03/12 09:50:08;;;;;;;1.20;1.10;;;5.50;41.90;;;;;;5075469;28;20456;-83
2022/03/12 09:52:36;;;;;;;0.30;0.20;;;5.40;40.80;;;;;;5062590;28;20868;-83
2022/03/12 09:55:05;;;;;;;0.30;0.20;;;5.40;41.10;;;;;;5050976;28;20464;-83
2022/03/12 09:57:32;;;;;;;0.30;0.10;;;5.50;41.70;;;;;;5051098;28;20935;-84
2022/03/12 10:00:01;;;;;;;0.30;0.10;;;5.60;41.90;;;;;;5051460;28;20528;-83
2022/03/12 10:02:28;;;;;;;0.30;0.20;;;5.70;42.00;;;;;;5058473;28;20452;-83
2022/03/12 10:04:55;;;;;;;0.30;0.10;;;5.70;42.00;;;;;;5058042;28;20444;-82
2022/03/12 10:07:23;;;;;;;0.30;0.10;;;5.80;40.70;;;;;;5052959;28;20456;-84
2022/03/12 10:09:50;;;;;;;0.30;0.17;;;5.80;41.30;;;;;;5059730;28;20444;-84
2022/03/12 10:12:19;;;;;;;0.37;0.30;;;5.90;41.30;;;;;;5063502;28;20479;-83
2022/03/12 10:14:48;;;;;;;0.30;0.20;;;6.00;40.50;;;;;;5076539;28;20448;-83
2022/03/12 10:17:17;;;;;;;0.30;0.10;;;6.10;42.00;;;;;;5065333;28;20519;-85
2022/03/12 10:19:45;;;;;;;0.33;0.20;;;6.30;41.50;;;;;;5050507;28;20531;-84
2022/03/12 10:22:12;;;;;;;1.07;0.53;;;6.40;41.80;;;;;;5049777;28;20453;-84
2022/03/12 10:24:39;;;;;;;0.30;0.20;;;6.50;41.20;;;;;;5050278;28;20498;-83
2022/03/12 10:27:09;;;;;;;0.30;0.20;;;6.50;40.00;;;;;;5057525;28;20464;-83
2022/03/12 10:29:38;;;;;;;0.30;0.20;;;6.20;39.20;;;;;;5066892;28;20468;-83
2022/03/12 10:32:25;;;;;;;0.40;0.40;;;6.20;40.40;;;;;;5070059;28;20935;-83
2022/03/12 10:34:56;;;;;;;0.40;0.20;;;6.40;40.40;;;;;;5070403;28;20447;-82
2022/03/12 10:37:24;;;;;;;0.30;0.10;;;6.80;40.50;;;;;;5062152;28;20455;-83
2022/03/12 10:40:06;;;;;;;0.30;0.10;;;7.00;40.30;;;;;;5065933;28;20954;-83
2022/03/12 10:42:34;;;;;;;0.30;0.20;;;7.00;39.50;;;;;;5057947;28;20456;-83
2022/03/12 10:45:09;;;;;;;1.57;1.47;;;7.00;38.80;;;;;;5067427;28;20460;-83
2022/03/12 10:47:42;;;;;;;0.30;0.20;;;7.10;39.20;;;;;;5072249;28;20447;-83
2022/03/12 10:50:15;;;;;;;0.30;0.10;;;7.50;39.20;;;;;;5080513;28;20456;-83
2022/03/12 10:52:47;;;;;;;0.30;0.17;;;7.50;38.30;;;;;;5064673;28;20454;-83
2022/03/12 10:55:19;;;;;;;0.40;0.20;;;7.80;38.40;;;;;;5068460;28;20457;-83
2022/03/12 10:58:05;;;;;;;0.30;0.20;;;7.60;38.00;;;;;;5067564;28;20461;-83
2022/03/12 11:00:34;;;;;;;0.40;0.30;;;7.80;38.40;;;;;;5065842;28;20458;-83
2022/03/12 11:03:04;;;;;;;0.40;0.20;;;8.00;38.30;;;;;;5056474;28;20486;-83
2022/03/12 11:05:34;;;;;;;0.70;0.70;;;8.00;36.50;;;;;;5069080;28;20533;-83
2022/03/12 11:08:17;;;;;;;0.30;0.20;;;7.80;37.30;;;;;;5064132;28;20482;-83
2022/03/12 11:10:50;;;;;;;0.40;0.20;;;7.90;36.90;;;;;;5050385;28;20450;-83
2022/03/12 11:13:35;;;;;;;0.30;0.17;;;8.20;37.30;;;;;;5068159;28;20509;-83
2022/03/12 11:16:12;;;;;;;0.30;0.20;;;8.30;37.80;;;;;;5068701;28;20545;-84
2022/03/12 11:18:55;;;;;;;0.30;0.20;;;8.60;37.00;;;;;;5054242;28;20854;-83
2022/03/12 11:21:26;;;;;;;0.30;0.20;;;8.30;35.10;;;;;;5064968;28;20450;-83
2022/03/12 11:23:54;;;;;;;0.30;0.20;;;8.40;35.00;;;;;;5076938;28;20524;-83
2022/03/12 11:26:22;;;;;;;0.30;0.20;;;8.30;34.60;;;;;;5057776;28;20512;-83
2022/03/12 11:28:56;;;;;;;0.40;0.20;;;8.50;36.70;;;;;;5061263;28;20468;-83
2022/03/12 11:31:39;;;;;;;0.37;0.20;;;8.80;35.60;;;;;;5054390;28;20501;-84
2022/03/12 11:34:31;;;;;;;0.30;0.20;;;8.70;33.40;;;;;;5062288;28;21005;-83
2022/03/12 11:37:05;;;;;;;0.30;0.20;;;9.00;34.90;;;;;;5074220;28;20511;-83
2022/03/12 11:39:34;;;;;;;0.37;0.20;;;9.10;36.20;;;;;;5064382;28;20981;-83
2022/03/12 11:42:04;;;;;;;0.40;0.20;;;8.90;33.90;;;;;;5062035;28;20517;-83
2022/03/12 11:44:32;;;;;;;1.90;0.40;;;9.00;35.50;;;;;;5071821;28;20487;-83
2022/03/12 11:46:59;;;;;;;0.40;0.20;;;9.00;35.20;;;;;;5059156;28;20633;-83
2022/03/12 11:49:28;;;;;;;0.30;0.20;;;9.10;34.40;;;;;;5052945;28;20554;-83
2022/03/12 11:51:56;;;;;;;0.30;0.10;;;8.90;33.80;;;;;;5053710;28;20463;-83
2022/03/12 11:54:23;;;;;;;0.40;0.20;;;9.20;36.00;;;;;;5053231;28;20827;-83
2022/03/12 11:56:51;;;;;;;0.40;0.20;;;9.30;34.80;;;;;;5058982;28;20456;-83
2022/03/12 11:59:18;;;;;;;0.70;0.30;;;9.30;33.80;;;;;;5052090;28;20851;-83
2022/03/12 12:02:01;;;;;;;0.40;0.20;;;9.00;34.10;;;;;;5054943;28;20444;-83
2022/03/12 12:04:32;;;;;;;0.40;0.30;;;9.20;34.80;;;;;;5065670;28;20487;-83
2022/03/12 12:07:01;;;;;;;0.40;0.20;;;9.30;34.40;;;;;;5074304;28;20448;-83
2022/03/12 12:09:29;;;;;;;0.63;0.53;;;9.40;33.60;;;;;;5065447;28;20558;-83
2022/03/12 12:11:56;;;;;;;0.40;0.30;;;9.50;33.50;;;;;;5052673;28;20444;-84
2022/03/12 12:14:25;;;;;;;0.33;0.20;;;9.70;32.90;;;;;;5055025;28;20455;-83
2022/03/12 12:16:56;;;;;;;0.40;0.27;;;9.60;32.30;;;;;;5053412;28;20473;-83
2022/03/12 12:19:24;;;;;;;0.40;0.20;;;9.50;31.40;;;;;;5056321;28;20797;-83
2022/03/12 12:21:52;;;;;;;0.30;0.10;;;9.50;33.10;;;;;;5055346;28;20479;-83
2022/03/12 12:24:28;;;;;;;0.40;0.30;;;9.60;33.00;;;;;;5053995;28;20589;-83
2022/03/12 12:27:00;;;;;;;0.73;0.73;;;9.70;32.50;;;;;;5050947;28;20518;-83
2022/03/12 12:29:47;;;;;;;0.40;0.20;;;9.60;31.50;;;;;;5057172;28;20456;-83
2022/03/12 12:32:15;;;;;;;0.40;0.20;;;9.80;31.80;;;;;;5064536;28;20536;-83
2022/03/12 12:34:58;;;;;;;0.40;0.20;;;10.20;31.60;;;;;;5054978;28;20473;-83
2022/03/12 12:37:45;;;;;;;0.40;0.20;;;10.10;30.10;;;;;;5057615;28;20514;-83
2022/03/12 12:40:21;;;;;;;0.93;0.30;;;10.10;30.20;;;;;;5059139;28;20992;-83
2022/03/12 12:42:49;;;;;;;0.40;0.37;;;10.10;31.70;;;;;;5067279;28;20498;-83
2022/03/12 12:45:18;;;;;;;0.40;0.10;;;10.00;30.10;;;;;;5062006;28;20487;-85
2022/03/12 12:47:45;;;;;;;0.40;0.20;;;10.00;31.40;;;;;;5063916;28;21011;-85
2022/03/12 12:50:20;;;;;;;0.40;0.20;;;9.90;30.00;;;;;;5066765;28;20467;-83
2022/03/12 12:53:11;;;;;;;0.40;0.20;;;10.20;30.00;;;;;;5070641;28;20444;-83
2022/03/12 12:55:39;;;;;;;0.40;0.20;;;10.30;29.60;;;;;;5054006;28;20462;-83
2022/03/12 12:58:07;;;;;;;0.40;0.20;;;10.40;29.70;;;;;;5063986;28;20456;-83
2022/03/12 13:00:38;;;;;;;0.40;0.20;;;10.30;30.10;;;;;;5062406;28;20463;-83